createdAt,value
2022-09-16T00:23:57.811Z,1.02
2022-09-16T00:54:04.206Z,1.40
2022-09-16T01:24:31.256Z,0.90
2022-09-16T01:54:38.456Z,1.10
2022-09-16T02:24:44.607Z,1.30
2022-09-16T02:54:52.054Z,1.10
2022-09-16T03:25:01.554Z,1.73
2022-09-16T03:55:06.450Z,2.10
2022-09-16T04:25:11.116Z,1.85
2022-09-16T04:55:15.451Z,1.60
2022-09-16T05:25:19.630Z,2.03
2022-09-16T05:55:24.238Z,1.40
2022-09-16T06:25:28.337Z,1.00
2022-09-16T06:55:32.499Z,1.20
2022-09-16T07:25:36.602Z,1.20
2022-09-16T07:55:40.685Z,0.88
2022-09-16T08:25:45.406Z,0.90
2022-09-16T08:55:51.050Z,1.17
2022-09-16T09:25:59.830Z,1.52
2022-09-16T09:56:13.154Z,0.80
2022-09-16T10:26:22.312Z,0.80
2022-09-16T10:56:30.028Z,0.82
2022-09-16T11:26:39.266Z,0.52
2022-09-16T11:56:46.356Z,0.50
2022-09-16T12:26:54.025Z,0.65
2022-09-16T12:57:18.930Z,0.80
2022-09-16T13:27:29.387Z,0.60
2022-09-16T13:57:49.671Z,0.60
2022-09-16T14:27:54.642Z,0.30
2022-09-16T14:57:59.099Z,0.47
2022-09-16T15:28:09.290Z,0.50
2022-09-16T15:58:17.016Z,0.50
2022-09-16T16:28:21.114Z,0.32
2022-09-16T16:58:25.224Z,0.70
2022-09-16T17:28:29.876Z,0.47
2022-09-16T17:58:34.878Z,0.52
2022-09-16T18:29:05.253Z,0.60
2022-09-16T18:59:23.102Z,0.52
2022-09-16T19:29:27.675Z,0.50
2022-09-16T19:59:32.152Z,1.30
2022-09-16T20:29:36.263Z,0.77
2022-09-16T20:59:40.329Z,1.00
2022-09-16T21:29:44.419Z,1.15
2022-09-16T21:59:48.528Z,0.80
2022-09-16T22:29:52.619Z,1.35
2022-09-16T22:59:56.694Z,1.35
2022-09-16T23:30:00.767Z,1.30
